Time;durP1;ratioP1;P1;durP2;ratioP2;P2;SDS_P1;SDS_P2;PMS_P1;PMS_P2;Temp;Humidity;BMP_temperature;BMP_pressure;BME280_temperature;BME280_humidity;BME280_pressure;Samples;Min_cycle;Max_cycle;Signal;HPM_P1;HPM_P2
2023/12/01 00:01:18;;;;;;;35.10;13.20;;;0.90;99.90;;;;;;5053007;28;20489;-76
2023/12/01 00:03:44;;;;;;;30.92;12.70;;;0.90;99.90;;;;;;5053192;28;20393;-76
2023/12/01 00:06:10;;;;;;;31.13;13.13;;;0.90;99.90;;;;;;5053203;28;20048;-76
2023/12/01 00:08:35;;;;;;;27.75;12.00;;;0.90;99.90;;;;;;5052691;28;20045;-76
2023/12/01 00:11:01;;;;;;;27.40;13.00;;;0.90;99.90;;;;;;5052747;28;20052;-76
2023/12/01 00:13:26;;;;;;;29.63;12.15;;;1.00;99.90;;;;;;5053065;28;20397;-76
2023/12/01 00:15:53;;;;;;;28.10;11.73;;;0.90;99.90;;;;;;5052757;28;20044;-76
2023/12/01 00:18:18;;;;;;;25.85;11.27;;;0.90;99.90;;;;;;5051670;28;20064;-76
2023/12/01 00:20:44;;;;;;;30.88;12.48;;;0.80;99.90;;;;;;5052610;28;20497;-77
2023/12/01 00:23:10;;;;;;;29.50;13.45;;;0.80;99.90;;;;;;5052758;28;20045;-76
2023/12/01 00:25:35;;;;;;;28.10;12.57;;;0.80;99.90;;;;;;5052552;28;20068;-76
2023/12/01 00:28:01;;;;;;;29.70;12.45;;;0.80;99.90;;;;;;5052546;28;20139;-76
2023/12/01 00:30:30;;;;;;;25.88;11.85;;;0.80;99.90;;;;;;5052362;28;20052;-76
2023/12/01 00:32:56;;;;;;;26.52;11.43;;;0.90;99.90;;;;;;5052419;28;20041;-76
2023/12/01 00:35:22;;;;;;;24.73;10.50;;;0.70;99.90;;;;;;5052398;28;20037;-76
2023/12/01 00:37:47;;;;;;;25.60;11.13;;;0.80;99.90;;;;;;5052275;28;20086;-76
2023/12/01 00:40:13;;;;;;;27.55;11.55;;;0.80;99.90;;;;;;5052285;28;20043;-76
2023/12/01 00:42:39;;;;;;;26.95;11.05;;;0.70;99.90;;;;;;5052305;28;20048;-76
2023/12/01 00:45:05;;;;;;;25.63;11.93;;;0.70;99.90;;;;;;5052333;28;20037;-76
2023/12/01 00:47:31;;;;;;;26.13;11.48;;;0.80;99.90;;;;;;5052190;28;20053;-76
2023/12/01 00:49:57;;;;;;;23.50;11.25;;;0.70;99.90;;;;;;5052039;28;20123;-77
2023/12/01 00:52:22;;;;;;;25.13;11.27;;;0.70;99.90;;;;;;5052099;28;20131;-77
2023/12/01 00:54:48;;;;;;;27.30;11.88;;;0.60;99.90;;;;;;5051997;28;20040;-77
2023/12/01 00:57:14;;;;;;;22.48;10.48;;;0.70;99.90;;;;;;5052112;28;20087;-77
2023/12/01 00:59:39;;;;;;;21.50;10.30;;;0.70;99.90;;;;;;5051746;28;20481;-77
2023/12/01 01:02:05;;;;;;;22.40;11.13;;;0.60;99.90;;;;;;5052004;28;20047;-77
2023/12/01 01:04:30;;;;;;;22.98;10.93;;;0.60;99.90;;;;;;5051891;28;20118;-77
2023/12/01 01:06:56;;;;;;;22.65;10.98;;;0.60;99.90;;;;;;5051922;28;20051;-77
2023/12/01 01:09:22;;;;;;;20.00;10.32;;;0.60;99.90;;;;;;5051818;28;20079;-77
2023/12/01 01:11:47;;;;;;;21.45;10.48;;;0.60;99.90;;;;;;5051941;28;20044;-77
2023/12/01 01:14:13;;;;;;;23.95;10.98;;;0.70;99.90;;;;;;5051926;28;20037;-77
2023/12/01 01:16:38;;;;;;;22.00;11.15;;;0.50;99.90;;;;;;5051836;28;20378;-78
2023/12/01 01:19:04;;;;;;;21.95;11.55;;;0.50;99.90;;;;;;5051771;28;20037;-78
2023/12/01 01:21:30;;;;;;;22.08;10.98;;;0.30;99.90;;;;;;5051745;28;20041;-78
2023/12/01 01:23:56;;;;;;;23.15;11.15;;;0.30;99.90;;;;;;5051700;28;20049;-78
2023/12/01 01:26:21;;;;;;;22.23;10.88;;;0.20;99.90;;;;;;5051737;28;20087;-78
2023/12/01 01:28:47;;;;;;;18.92;9.80;;;0.30;99.90;;;;;;5051542;28;20036;-78
2023/12/01 01:31:13;;;;;;;21.42;10.88;;;0.30;99.90;;;;;;5072005;28;20475;-78
2023/12/01 01:33:38;;;;;;;21.38;10.68;;;0.20;99.90;;;;;;5055991;28;20044;-79
2023/12/01 01:36:04;;;;;;;22.25;11.20;;;0.30;99.90;;;;;;5055726;28;20531;-79
2023/12/01 01:38:30;;;;;;;24.48;12.00;;;0.30;99.90;;;;;;5055712;28;20123;-79
2023/12/01 01:40:56;;;;;;;26.52;13.20;;;0.10;99.90;;;;;;5055584;28;20405;-79
2023/12/01 01:43:22;;;;;;;26.25;13.93;;;0.10;99.90;;;;;;5055885;28;20194;-79
2023/12/01 01:46:00;;;;;;;26.90;13.27;;;0.00;99.90;;;;;;5055890;28;20132;-80
2023/12/01 01:48:27;;;;;;;24.83;13.80;;;0.00;99.90;;;;;;5038865;28;20045;-80
2023/12/01 01:50:53;;;;;;;23.00;12.15;;;-0.10;99.90;;;;;;5055327;28;20045;-80
2023/12/01 01:53:19;;;;;;;25.40;12.68;;;-0.10;99.90;;;;;;5055478;28;20033;-80
2023/12/01 01:55:45;;;;;;;25.63;12.95;;;0.00;99.90;;;;;;5055353;28;20567;-80
2023/12/01 01:58:12;;;;;;;27.92;13.10;;;0.10;99.90;;;;;;5055557;28;20091;-80
2023/12/01 02:00:38;;;;;;;28.77;15.30;;;0.10;99.90;;;;;;5055593;28;20114;-80
2023/12/01 02:03:04;;;;;;;28.00;13.70;;;0.20;99.90;;;;;;5055216;28;20037;-80
2023/12/01 02:05:33;;;;;;;25.40;13.05;;;0.00;99.90;;;;;;5055415;28;20103;-80
2023/12/01 02:08:23;;;;;;;28.83;14.60;;;0.00;99.90;;;;;;5055274;28;20036;-80
2023/12/01 02:10:49;;;;;;;27.70;13.00;;;0.10;99.90;;;;;;5055337;28;20055;-80
2023/12/01 02:13:15;;;;;;;28.00;13.93;;;0.20;99.90;;;;;;5055261;28;20037;-80
2023/12/01 02:15:42;;;;;;;28.63;13.50;;;0.20;99.90;;;;;;5055343;28;20398;-80
2023/12/01 02:18:20;;;;;;;28.50;13.07;;;0.10;99.90;;;;;;5054974;28;20542;-80
2023/12/01 02:20:45;;;;;;;27.67;13.50;;;0.00;99.90;;;;;;5054799;28;20037;-80
2023/12/01 02:23:11;;;;;;;30.02;14.65;;;0.00;99.90;;;;;;5054895;28;20048;-81
2023/12/01 02:25:36;;;;;;;29.73;13.75;;;0.00;99.90;;;;;;5054905;28;20045;-81
2023/12/01 02:28:02;;;;;;;29.00;14.15;;;0.00;99.90;;;;;;5054967;28;20404;-81
2023/12/01 02:30:28;;;;;;;31.08;13.48;;;-0.10;99.90;;;;;;5054634;28;20072;-81
2023/12/01 02:32:53;;;;;;;27.85;13.57;;;0.00;99.90;;;;;;5054706;28;20037;-81
2023/12/01 02:35:19;;;;;;;29.40;13.45;;;0.00;99.90;;;;;;5054659;28;20037;-81
2023/12/01 02:37:45;;;;;;;25.25;12.68;;;0.00;99.90;;;;;;5054665;28;20064;-81
2023/12/01 02:40:15;;;;;;;25.45;11.50;;;-0.10;99.90;;;;;;5054479;28;20497;-81
2023/12/01 02:42:46;;;;;;;27.45;12.25;;;-0.10;99.90;;;;;;5053242;28;20130;-82
2023/12/01 02:45:11;;;;;;;28.07;12.60;;;-0.20;99.90;;;;;;5054558;28;20037;-82
2023/12/01 02:47:37;;;;;;;28.27;13.45;;;-0.20;99.90;;;;;;5054672;28;20036;-82
2023/12/01 02:50:03;;;;;;;28.50;13.02;;;-0.20;99.90;;;;;;5054343;28;20033;-82
2023/12/01 02:52:29;;;;;;;32.00;14.65;;;-0.30;99.90;;;;;;5054881;28;20048;-82
2023/12/01 02:54:54;;;;;;;32.45;13.82;;;-0.40;99.90;;;;;;5054294;28;20037;-82
2023/12/01 02:57:20;;;;;;;26.30;13.02;;;-0.30;99.90;;;;;;5054299;28;20041;-82
2023/12/01 02:59:45;;;;;;;30.10;13.63;;;-0.30;99.90;;;;;;5053924;28;20440;-82
2023/12/01 03:02:11;;;;;;;29.60;14.27;;;-0.40;99.90;;;;;;5054436;28;20087;-82
2023/12/01 03:04:37;;;;;;;27.25;12.57;;;-0.40;99.90;;;;;;5054341;28;20066;-82
2023/12/01 03:07:04;;;;;;;28.27;13.05;;;-0.40;99.90;;;;;;5054023;28;20033;-82
2023/12/01 03:09:29;;;;;;;29.65;12.43;;;-0.30;99.90;;;;;;5053961;28;20040;-82
2023/12/01 03:11:55;;;;;;;27.48;12.70;;;-0.30;99.90;;;;;;5053873;28;20048;-82
2023/12/01 03:14:22;;;;;;;26.75;11.13;;;-0.30;99.90;;;;;;5053957;28;20485;-82
2023/12/01 03:16:48;;;;;;;30.50;13.98;;;-0.30;99.90;;;;;;5054374;28;20044;-82
2023/12/01 03:19:14;;;;;;;28.90;13.23;;;-0.40;99.90;;;;;;5053806;28;20048;-82
2023/12/01 03:21:39;;;;;;;31.63;13.10;;;-0.40;99.90;;;;;;5054026;28;20386;-82
2023/12/01 03:24:09;;;;;;;28.75;13.15;;;-0.40;99.90;;;;;;5053812;28;20504;-82
2023/12/01 03:26:35;;;;;;;29.55;13.13;;;-0.30;99.90;;;;;;5053780;28;20090;-82
2023/12/01 03:29:02;;;;;;;30.10;12.55;;;-0.40;99.90;;;;;;5053577;28;20044;-82
2023/12/01 03:31:27;;;;;;;31.00;13.93;;;-0.40;99.90;;;;;;5050749;28;20048;-82
2023/12/01 03:33:53;;;;;;;31.85;13.63;;;-0.40;99.90;;;;;;5036703;28;20029;-82
2023/12/01 03:36:18;;;;;;;29.05;13.85;;;-0.40;99.90;;;;;;5053653;28;20075;-82
2023/12/01 03:38:44;;;;;;;28.65;12.63;;;-0.40;99.90;;;;;;5036878;28;20037;-82
2023/12/01 03:41:10;;;;;;;29.15;13.15;;;-0.40;99.90;;;;;;5053497;28;20037;-82
2023/12/01 03:43:35;;;;;;;32.28;13.05;;;-0.30;99.90;;;;;;5037091;28;20103;-82
2023/12/01 03:46:03;;;;;;;30.65;13.10;;;-0.30;99.90;;;;;;5036788;28;20087;-82
2023/12/01 03:48:30;;;;;;;32.35;14.27;;;-0.30;99.90;;;;;;5036699;28;20047;-82
2023/12/01 03:50:56;;;;;;;28.13;12.70;;;-0.30;99.90;;;;;;5036591;28;20052;-82
2023/12/01 03:53:21;;;;;;;29.02;13.30;;;-0.40;99.90;;;;;;5036652;28;20505;-82
2023/12/01 03:55:47;;;;;;;30.10;13.52;;;-0.40;99.90;;;;;;5036490;28;20066;-82
2023/12/01 03:58:13;;;;;;;29.25;12.93;;;-0.50;99.90;;;;;;5052866;28;20036;-81
2023/12/01 04:00:38;;;;;;;31.80;13.75;;;-0.50;99.90;;;;;;5052964;28;20049;-82
2023/12/01 04:03:04;;;;;;;33.15;13.68;;;-0.50;99.90;;;;;;5036451;28;20093;-82
2023/12/01 04:05:30;;;;;;;32.20;13.48;;;-0.40;99.90;;;;;;5052918;28;20136;-82
2023/12/01 04:07:56;;;;;;;29.25;12.88;;;-0.60;99.90;;;;;;5036496;28;20044;-82
2023/12/01 04:10:22;;;;;;;28.85;12.90;;;-0.60;99.90;;;;;;5052862;28;20041;-82
2023/12/01 04:12:48;;;;;;;31.95;14.02;;;-0.50;99.90;;;;;;5052702;28;20554;-82
2023/12/01 04:15:17;;;;;;;32.60;14.15;;;-0.60;99.90;;;;;;5036188;28;20033;-82
2023/12/01 04:17:44;;;;;;;28.50;12.82;;;-0.50;99.90;;;;;;5036446;28;20393;-82
2023/12/01 04:20:27;;;;;;;29.10;13.35;;;-0.60;99.90;;;;;;5036058;28;20040;-82
2023/12/01 04:23:00;;;;;;;27.67;13.43;;;-0.60;99.90;;;;;;5036033;28;20045;-81
2023/12/01 04:25:27;;;;;;;24.42;11.07;;;-0.60;99.90;;;;;;5052614;28;20041;-82
2023/12/01 04:27:53;;;;;;;28.60;12.77;;;-0.60;99.90;;;;;;5036215;28;20394;-81
2023/12/01 04:30:20;;;;;;;26.42;12.05;;;-0.70;99.90;;;;;;5035810;28;20037;-81
2023/12/01 04:32:56;;;;;;;26.58;12.20;;;-0.70;99.90;;;;;;5035810;28;20036;-81
2023/12/01 04:35:27;;;;;;;28.52;12.27;;;-0.70;99.90;;;;;;5036029;28;20076;-81
2023/12/01 04:37:54;;;;;;;25.15;11.35;;;-0.80;99.90;;;;;;5052454;28;20115;-81
2023/12/01 04:40:20;;;;;;;26.33;12.13;;;-0.80;99.90;;;;;;5052558;28;20041;-81
2023/12/01 04:42:47;;;;;;;21.98;10.60;;;-0.90;99.90;;;;;;5052445;28;20534;-81
2023/12/01 04:45:21;;;;;;;24.80;11.43;;;-0.90;99.90;;;;;;5052236;28;20048;-81
2023/12/01 04:47:51;;;;;;;25.75;11.77;;;-0.90;99.90;;;;;;5035876;28;20131;-81
2023/12/01 04:50:18;;;;;;;22.85;11.00;;;-0.90;99.90;;;;;;5052094;28;20033;-81
2023/12/01 04:52:55;;;;;;;22.33;10.48;;;-0.90;99.90;;;;;;5035468;28;20041;-81
2023/12/01 04:55:25;;;;;;;22.75;10.52;;;-0.90;99.90;;;;;;5035538;28;20068;-81
2023/12/01 04:57:51;;;;;;;23.02;10.23;;;-1.00;99.90;;;;;;5035759;28;20432;-81
2023/12/01 05:00:19;;;;;;;25.63;11.25;;;-0.90;99.90;;;;;;5051789;28;20568;-81
2023/12/01 05:02:51;;;;;;;23.40;11.00;;;-1.00;99.90;;;;;;5052202;28;20445;-81
2023/12/01 05:05:20;;;;;;;22.15;10.52;;;-1.00;99.90;;;;;;5051526;28;20103;-80
2023/12/01 05:07:49;;;;;;;25.48;10.82;;;-1.00;99.90;;;;;;5035342;28;20106;-80
2023/12/01 05:10:16;;;;;;;25.35;11.32;;;-0.90;99.90;;;;;;5035338;28;20409;-81
2023/12/01 05:12:43;;;;;;;22.48;9.93;;;-0.90;99.90;;;;;;5035077;28;20076;-80
2023/12/01 05:15:15;;;;;;;22.23;10.38;;;-0.90;99.90;;;;;;5051871;28;20539;-80
2023/12/01 05:17:49;;;;;;;22.85;11.25;;;-0.90;99.90;;;;;;5051916;28;20045;-80
2023/12/01 05:20:15;;;;;;;23.52;9.60;;;-1.00;99.90;;;;;;5051833;28;20048;-80
2023/12/01 05:22:43;;;;;;;20.23;10.30;;;-1.00;99.90;;;;;;5051944;28;20049;-80
2023/12/01 05:25:13;;;;;;;21.23;9.77;;;-1.00;99.90;;;;;;5035418;28;20455;-80
2023/12/01 05:27:48;;;;;;;22.40;9.43;;;-1.10;99.90;;;;;;5051748;28;20048;-80
2023/12/01 05:30:15;;;;;;;23.25;10.48;;;-1.10;99.90;;;;;;5034960;28;20041;-80
2023/12/01 05:32:42;;;;;;;21.73;10.57;;;-1.00;99.90;;;;;;5034896;28;20120;-80
2023/12/01 05:35:12;;;;;;;22.77;10.32;;;-1.00;99.90;;;;;;5051963;28;20420;-80
2023/12/01 05:37:46;;;;;;;25.15;10.63;;;-1.10;99.90;;;;;;5051514;28;20064;-80
2023/12/01 05:40:15;;;;;;;24.15;10.55;;;-1.00;99.90;;;;;;5035060;28;20515;-80
2023/12/01 05:42:42;;;;;;;23.42;10.77;;;-1.10;99.90;;;;;;5035157;28;20397;-80
2023/12/01 05:45:11;;;;;;;23.58;10.15;;;-1.10;99.90;;;;;;5051620;28;20076;-79
2023/12/01 05:47:44;;;;;;;23.17;10.30;;;-1.10;99.90;;;;;;5035127;28;20037;-80
2023/12/01 05:50:14;;;;;;;23.67;11.23;;;-1.10;99.90;;;;;;5051380;28;20053;-80
2023/12/01 05:52:41;;;;;;;23.48;10.38;;;-1.20;99.90;;;;;;5051391;28;20037;-79
2023/12/01 05:55:14;;;;;;;24.48;11.40;;;-1.20;99.90;;;;;;5034855;28;20033;-79
2023/12/01 05:57:42;;;;;;;22.80;10.50;;;-1.30;99.90;;;;;;5035015;28;20048;-79
2023/12/01 06:00:18;;;;;;;21.77;10.23;;;-1.20;99.90;;;;;;5051272;28;20532;-79
2023/12/01 06:02:45;;;;;;;21.50;10.15;;;-1.20;99.90;;;;;;5034843;28;20056;-79
2023/12/01 06:05:12;;;;;;;24.38;11.05;;;-1.20;99.90;;;;;;5035125;28;20045;-80
2023/12/01 06:07:41;;;;;;;21.08;9.75;;;-1.20;99.90;;;;;;5034997;28;20044;-80
2023/12/01 06:10:08;;;;;;;20.50;9.77;;;-1.20;99.90;;;;;;5034862;28;20508;-79
2023/12/01 06:12:34;;;;;;;21.60;10.07;;;-1.30;99.90;;;;;;5034659;28;20076;-79
2023/12/01 06:15:00;;;;;;;21.30;9.82;;;-1.30;99.90;;;;;;5034705;28;20049;-79
2023/12/01 06:17:25;;;;;;;21.25;10.30;;;-1.40;99.90;;;;;;5038263;28;20044;-80
2023/12/01 06:19:51;;;;;;;20.63;10.10;;;-1.40;99.90;;;;;;5038344;28;20037;-79
2023/12/01 06:22:17;;;;;;;21.08;9.63;;;-1.40;99.90;;;;;;5038280;28;20044;-79
2023/12/01 06:24:42;;;;;;;22.38;9.63;;;-1.30;99.90;;;;;;5054921;28;20049;-79
2023/12/01 06:27:08;;;;;;;19.33;9.20;;;-1.30;99.90;;;;;;5054834;28;20052;-80
2023/12/01 06:29:34;;;;;;;20.65;10.68;;;-1.30;99.90;;;;;;5038031;28;20041;-79
2023/12/01 06:32:00;;;;;;;22.50;9.95;;;-1.40;99.90;;;;;;5038148;28;20041;-79
2023/12/01 06:34:26;;;;;;;21.20;9.57;;;-1.50;99.90;;;;;;5038077;28;20044;-79
2023/12/01 06:36:51;;;;;;;24.60;10.30;;;-1.50;99.90;;;;;;5054733;28;20029;-79
2023/12/01 06:39:17;;;;;;;20.85;10.63;;;-1.50;99.90;;;;;;5054688;28;20029;-79
2023/12/01 06:41:43;;;;;;;21.15;9.93;;;-1.50;99.90;;;;;;5054812;28;20086;-79
2023/12/01 06:44:09;;;;;;;18.08;8.80;;;-1.60;99.90;;;;;;5037853;28;20037;-79
2023/12/01 06:46:35;;;;;;;22.63;10.50;;;-1.60;99.90;;;;;;5037824;28;20114;-79
2023/12/01 06:49:01;;;;;;;20.75;9.55;;;-1.70;99.90;;;;;;5038109;28;20033;-79
2023/12/01 06:51:26;;;;;;;17.92;8.80;;;-1.70;99.90;;;;;;5037726;28;20501;-79
2023/12/01 06:53:52;;;;;;;18.75;9.15;;;-1.70;99.90;;;;;;5037668;28;20040;-80
2023/12/01 06:56:18;;;;;;;20.45;10.30;;;-1.80;99.90;;;;;;5037750;28;20551;-79
2023/12/01 06:58:43;;;;;;;21.40;10.15;;;-1.80;99.90;;;;;;5037755;28;20060;-79
2023/12/01 07:01:18;;;;;;;21.27;9.70;;;-1.80;99.90;;;;;;5054545;28;20427;-79
2023/12/01 07:03:47;;;;;;;20.42;10.43;;;-1.80;99.90;;;;;;5054406;28;20469;-79
2023/12/01 07:06:13;;;;;;;20.20;9.38;;;-1.80;99.90;;;;;;5037845;28;20457;-79
2023/12/01 07:08:40;;;;;;;20.80;9.40;;;-1.90;99.90;;;;;;5054311;28;20111;-79
2023/12/01 07:11:08;;;;;;;19.80;9.60;;;-1.80;99.90;;;;;;5037350;28;20045;-79
2023/12/01 07:13:34;;;;;;;22.27;10.18;;;-1.90;99.90;;;;;;5037192;28;20041;-79
2023/12/01 07:16:09;;;;;;;19.48;9.60;;;-2.00;99.90;;;;;;5053914;28;20091;-79
2023/12/01 07:18:37;;;;;;;20.45;9.75;;;-2.00;99.90;;;;;;5070854;28;20037;-79
2023/12/01 07:21:06;;;;;;;20.05;8.82;;;-2.00;99.90;;;;;;5037424;28;20040;-79
2023/12/01 07:23:32;;;;;;;20.73;9.20;;;-2.00;99.90;;;;;;5037101;28;20048;-79
2023/12/01 07:25:58;;;;;;;23.42;9.88;;;-1.90;99.90;;;;;;5037325;28;20394;-79
2023/12/01 07:28:24;;;;;;;20.63;9.75;;;-1.90;99.90;;;;;;5053382;28;20434;-79
2023/12/01 07:30:50;;;;;;;20.92;9.63;;;-1.90;99.90;;;;;;5053589;28;20119;-79
2023/12/01 07:33:16;;;;;;;20.77;9.68;;;-1.90;99.90;;;;;;5037313;28;20123;-79
2023/12/01 07:35:43;;;;;;;20.70;9.60;;;-1.90;99.90;;;;;;5053742;28;20106;-79
2023/12/01 07:38:09;;;;;;;20.70;9.80;;;-1.90;99.90;;;;;;5053534;28;20045;-79
2023/12/01 07:40:35;;;;;;;19.80;9.25;;;-2.00;99.90;;;;;;5036777;28;20037;-79
2023/12/01 07:43:01;;;;;;;20.13;8.90;;;-1.90;99.90;;;;;;5036729;28;20041;-79
2023/12/01 07:45:26;;;;;;;21.35;8.80;;;-1.90;99.90;;;;;;5053643;28;20512;-79
2023/12/01 07:47:54;;;;;;;21.23;9.75;;;-1.90;99.90;;;;;;5036701;28;20128;-79
2023/12/01 07:50:21;;;;;;;21.00;9.95;;;-1.90;99.90;;;;;;5036588;28;20087;-79
2023/12/01 07:52:48;;;;;;;19.85;10.10;;;-1.90;99.90;;;;;;5053503;28;20108;-79
2023/12/01 07:55:14;;;;;;;22.10;9.38;;;-1.80;99.90;;;;;;5053134;28;20087;-79
2023/12/01 07:57:40;;;;;;;21.17;8.85;;;-1.70;99.90;;;;;;5053418;28;20389;-79
2023/12/01 08:00:16;;;;;;;21.10;8.93;;;-1.90;99.90;;;;;;5036420;28;20132;-79
2023/12/01 08:02:47;;;;;;;22.90;10.02;;;-1.90;99.90;;;;;;5036491;28;20123;-79
2023/12/01 08:05:15;;;;;;;21.42;9.63;;;-2.00;99.90;;;;;;5036317;28;20091;-79
2023/12/01 08:07:46;;;;;;;22.77;10.15;;;-2.10;99.90;;;;;;5036264;28;20036;-79
2023/12/01 08:10:17;;;;;;;20.13;9.43;;;-2.20;99.90;;;;;;5052996;28;20095;-79
2023/12/01 08:12:44;;;;;;;19.48;8.88;;;-2.30;99.90;;;;;;5052895;28;20082;-79
2023/12/01 08:15:10;;;;;;;21.05;9.48;;;-2.30;99.90;;;;;;5052789;28;20041;-79
2023/12/01 08:17:37;;;;;;;20.02;9.77;;;-2.30;99.90;;;;;;5036270;28;20036;-79
2023/12/01 08:20:05;;;;;;;21.98;10.13;;;-2.60;99.90;;;;;;5036135;28;20083;-79
2023/12/01 08:22:31;;;;;;;20.55;9.68;;;-2.60;99.90;;;;;;5036219;28;20040;-79
2023/12/01 08:24:57;;;;;;;17.70;8.57;;;-2.50;99.90;;;;;;5035970;28;20048;-79
2023/12/01 08:27:23;;;;;;;22.98;10.07;;;-2.50;99.90;;;;;;5036322;28;20029;-79
2023/12/01 08:29:50;;;;;;;21.13;10.00;;;-2.40;99.90;;;;;;5052436;28;20076;-79
2023/12/01 08:32:15;;;;;;;18.85;8.95;;;-2.40;99.90;;;;;;5035853;28;20041;-79
2023/12/01 08:34:42;;;;;;;20.50;8.98;;;-2.40;99.90;;;;;;5035656;28;20048;-79
2023/12/01 08:37:07;;;;;;;23.10;9.82;;;-2.30;99.90;;;;;;5052696;28;20363;-79
2023/12/01 08:39:33;;;;;;;21.73;9.82;;;-2.30;99.90;;;;;;5034951;28;20039;-79
2023/12/01 08:41:59;;;;;;;21.02;10.23;;;-2.30;99.90;;;;;;5052389;28;20041;-79
2023/12/01 08:44:24;;;;;;;24.17;11.20;;;-2.30;99.90;;;;;;5052280;28;20484;-79
2023/12/01 08:46:50;;;;;;;25.25;10.50;;;-2.20;99.90;;;;;;5052228;28;20041;-79
2023/12/01 08:49:16;;;;;;;22.30;9.80;;;-2.10;99.90;;;;;;5052128;28;20048;-79
2023/12/01 08:51:41;;;;;;;20.40;9.05;;;-2.10;99.90;;;;;;5052166;28;20044;-79
2023/12/01 08:54:07;;;;;;;23.38;9.45;;;-2.00;99.90;;;;;;5035468;28;20044;-79
2023/12/01 08:56:34;;;;;;;22.10;9.80;;;-2.00;99.90;;;;;;5052100;28;20032;-79
2023/12/01 08:59:00;;;;;;;21.20;9.93;;;-1.90;99.90;;;;;;5052057;28;20453;-80
2023/12/01 09:01:26;;;;;;;23.75;10.88;;;-1.80;99.90;;;;;;5035493;28;20151;-80
2023/12/01 09:03:52;;;;;;;19.38;8.63;;;-1.90;99.90;;;;;;5051830;28;20043;-80
2023/12/01 09:06:17;;;;;;;21.02;9.80;;;-1.90;99.90;;;;;;5035343;28;20098;-80
2023/12/01 09:08:43;;;;;;;22.85;9.13;;;-1.80;99.90;;;;;;5035579;28;20064;-80
2023/12/01 09:11:09;;;;;;;19.67;9.10;;;-1.80;99.90;;;;;;5035225;28;20044;-80
2023/12/01 09:13:36;;;;;;;20.55;9.10;;;-1.70;99.90;;;;;;5051843;28;20037;-81
2023/12/01 09:16:02;;;;;;;20.23;9.25;;;-1.60;99.90;;;;;;5052066;28;20388;-80
2023/12/01 09:18:31;;;;;;;24.00;10.38;;;-1.60;99.90;;;;;;5052056;28;20047;-80
2023/12/01 09:20:57;;;;;;;18.65;8.65;;;-1.60;99.90;;;;;;5035389;28;20095;-80
2023/12/01 09:23:24;;;;;;;19.38;9.32;;;-1.50;99.90;;;;;;5052023;28;20076;-80
2023/12/01 09:25:50;;;;;;;20.58;9.65;;;-1.50;99.90;;;;;;5051668;28;20126;-80
2023/12/01 09:28:16;;;;;;;18.77;8.13;;;-1.40;99.90;;;;;;5051709;28;20048;-80
2023/12/01 09:30:42;;;;;;;17.75;8.35;;;-1.40;99.90;;;;;;5051640;28;20052;-80
2023/12/01 09:33:07;;;;;;;22.90;11.02;;;-1.30;99.90;;;;;;5035003;28;20068;-80
2023/12/01 09:35:33;;;;;;;19.95;8.70;;;-1.20;99.90;;;;;;5034975;28;20073;-80
2023/12/01 09:37:59;;;;;;;18.45;9.88;;;-1.20;99.90;;;;;;5035120;28;20045;-81
2023/12/01 09:40:24;;;;;;;18.92;8.13;;;-1.00;99.90;;;;;;5051662;28;20127;-81
2023/12/01 09:42:50;;;;;;;20.30;9.23;;;-0.90;99.90;;;;;;5034954;28;20123;-81
2023/12/01 09:45:22;;;;;;;21.92;10.23;;;-0.80;99.90;;;;;;5051492;28;20069;-80
2023/12/01 09:47:58;;;;;;;22.88;10.73;;;-0.80;99.90;;;;;;5051615;28;20041;-81
2023/12/01 09:50:24;;;;;;;22.00;9.57;;;-0.80;99.90;;;;;;5052181;28;20521;-81
2023/12/01 09:52:53;;;;;;;19.55;9.98;;;-0.80;99.90;;;;;;5038879;28;20119;-81
2023/12/01 09:55:19;;;;;;;24.10;10.43;;;-0.70;99.90;;;;;;5055388;28;20083;-81
2023/12/01 09:57:45;;;;;;;20.05;9.18;;;-0.70;99.90;;;;;;5038741;28;20580;-81
2023/12/01 10:00:11;;;;;;;19.80;9.85;;;-0.60;99.90;;;;;;5055159;28;20501;-81
2023/12/01 10:02:40;;;;;;;22.30;10.00;;;-0.50;99.90;;;;;;5038672;28;20079;-81
2023/12/01 10:05:06;;;;;;;18.63;8.95;;;-0.40;99.90;;;;;;5038580;28;20051;-80
2023/12/01 10:07:33;;;;;;;20.55;10.07;;;-0.40;99.90;;;;;;5038603;28;20128;-81
2023/12/01 10:09:59;;;;;;;21.13;9.98;;;-0.30;99.90;;;;;;5038642;28;20041;-81
2023/12/01 10:12:24;;;;;;;24.02;9.90;;;-0.20;99.90;;;;;;5055392;28;20033;-81
2023/12/01 10:14:50;;;;;;;19.65;9.77;;;-0.10;99.90;;;;;;5038373;28;20155;-81
2023/12/01 10:17:25;;;;;;;22.08;11.50;;;0.10;99.90;;;;;;5055078;28;20065;-81
2023/12/01 10:19:51;;;;;;;22.52;10.75;;;0.10;99.90;;;;;;5038414;28;20040;-81
2023/12/01 10:22:17;;;;;;;19.63;9.35;;;0.10;99.90;;;;;;5054945;28;20508;-81
2023/12/01 10:24:54;;;;;;;18.55;9.50;;;0.20;99.90;;;;;;5038182;28;20040;-81
2023/12/01 10:27:19;;;;;;;21.38;8.90;;;0.30;99.90;;;;;;5038170;28;20040;-81
2023/12/01 10:29:47;;;;;;;19.73;9.57;;;0.50;99.90;;;;;;5038080;28;20131;-81
2023/12/01 10:32:14;;;;;;;22.02;10.23;;;0.50;99.90;;;;;;5038179;28;20037;-81
2023/12/01 10:34:48;;;;;;;22.00;10.25;;;0.60;99.90;;;;;;5038267;28;20405;-81
2023/12/01 10:37:15;;;;;;;20.60;10.45;;;0.70;99.90;;;;;;5038392;28;20103;-81
2023/12/01 10:39:43;;;;;;;20.33;10.10;;;0.70;99.90;;;;;;5054670;28;20128;-81
2023/12/01 10:42:09;;;;;;;19.50;9.50;;;0.60;99.90;;;;;;5037935;28;20048;-81
2023/12/01 10:44:36;;;;;;;21.17;10.68;;;0.50;99.90;;;;;;5037928;28;20041;-81
2023/12/01 10:47:02;;;;;;;18.50;10.10;;;0.30;99.90;;;;;;5054711;28;20076;-81
2023/12/01 10:49:28;;;;;;;19.45;9.80;;;0.30;99.90;;;;;;5054646;28;20036;-81
2023/12/01 10:51:55;;;;;;;19.85;10.15;;;0.30;99.90;;;;;;5071114;28;20079;-82
2023/12/01 10:54:23;;;;;;;18.52;9.85;;;0.30;99.90;;;;;;5037670;28;20040;-82
2023/12/01 10:57:07;;;;;;;19.55;9.70;;;0.40;99.90;;;;;;5054484;28;20091;-82
2023/12/01 10:59:35;;;;;;;17.15;9.10;;;0.30;99.90;;;;;;5037594;28;20493;-82
2023/12/01 11:02:02;;;;;;;18.63;9.95;;;0.40;99.90;;;;;;5053355;28;20051;-82
2023/12/01 11:04:32;;;;;;;18.45;9.55;;;0.40;99.90;;;;;;5054059;28;20539;-82
2023/12/01 11:07:16;;;;;;;16.35;8.48;;;0.40;99.90;;;;;;5054031;28;20037;-82
2023/12/01 11:09:59;;;;;;;16.45;7.88;;;0.30;99.90;;;;;;5037392;28;20045;-82
2023/12/01 11:12:43;;;;;;;13.40;7.18;;;0.30;99.90;;;;;;5037679;28;20043;-82
2023/12/01 11:15:15;;;;;;;15.27;8.23;;;0.30;99.90;;;;;;5037524;28;20500;-82
2023/12/01 11:17:42;;;;;;;14.98;8.30;;;0.40;99.90;;;;;;5053966;28;20044;-82
2023/12/01 11:20:29;;;;;;;15.52;8.35;;;0.30;99.90;;;;;;5037302;28;20505;-82
2023/12/01 11:23:11;;;;;;;18.10;9.38;;;0.30;99.90;;;;;;5037209;28;20059;-82
2023/12/01 11:25:50;;;;;;;16.83;7.90;;;0.30;99.90;;;;;;5053664;28;20052;-82
2023/12/01 11:28:22;;;;;;;19.42;9.43;;;0.40;99.90;;;;;;5037428;28;20450;-82
2023/12/01 11:31:08;;;;;;;16.90;9.00;;;0.30;99.90;;;;;;5053779;28;20102;-83
2023/12/01 11:33:48;;;;;;;19.25;9.90;;;0.30;99.90;;;;;;5037346;28;20075;-83
2023/12/01 11:36:31;;;;;;;17.38;8.65;;;0.30;99.90;;;;;;5053541;28;20036;-82
2023/12/01 11:39:16;;;;;;;18.17;8.70;;;0.30;99.90;;;;;;5053637;28;20135;-82
2023/12/01 11:41:42;;;;;;;21.52;10.55;;;0.40;99.90;;;;;;5037065;28;20392;-82
2023/12/01 11:44:29;;;;;;;18.77;9.48;;;0.40;99.90;;;;;;5053472;28;20044;-82
2023/12/01 11:46:57;;;;;;;20.60;10.18;;;0.40;99.90;;;;;;5053405;28;20045;-83
2023/12/01 11:49:38;;;;;;;19.05;9.95;;;0.30;99.90;;;;;;5036880;28;20147;-83
2023/12/01 11:52:14;;;;;;;18.52;9.38;;;0.30;99.90;;;;;;5036784;28;20033;-82
2023/12/01 11:54:41;;;;;;;21.45;10.77;;;0.40;99.90;;;;;;5053466;28;20037;-83
2023/12/01 11:57:08;;;;;;;17.20;9.38;;;0.30;99.90;;;;;;5036582;28;20029;-82
2023/12/01 11:59:34;;;;;;;16.85;8.90;;;0.30;99.90;;;;;;5036455;28;20505;-83
2023/12/01 12:02:02;;;;;;;20.33;10.73;;;0.40;99.90;;;;;;5036493;28;20037;-82
2023/12/01 12:04:28;;;;;;;17.83;9.40;;;0.40;99.90;;;;;;5036434;28;20060;-82
2023/12/01 12:06:54;;;;;;;19.05;10.73;;;0.50;99.90;;;;;;5036329;28;20063;-82
2023/12/01 12:09:20;;;;;;;20.38;11.10;;;0.40;99.90;;;;;;5036497;28;20045;-82
2023/12/01 12:11:48;;;;;;;19.23;10.30;;;0.30;99.90;;;;;;5036401;28;20032;-82
2023/12/01 12:14:15;;;;;;;20.45;10.05;;;0.30;99.90;;;;;;5036489;28;20431;-82
2023/12/01 12:16:41;;;;;;;18.50;9.82;;;0.40;99.90;;;;;;5036381;28;20504;-82
2023/12/01 12:19:07;;;;;;;18.75;9.60;;;0.40;99.90;;;;;;5036275;28;20045;-82
2023/12/01 12:21:35;;;;;;;21.08;11.50;;;0.50;99.90;;;;;;5036198;28;20045;-82
2023/12/01 12:24:00;;;;;;;20.05;10.45;;;0.50;99.90;;;;;;5036420;28;20048;-82
2023/12/01 12:26:28;;;;;;;19.80;10.43;;;0.40;99.90;;;;;;5052626;28;20556;-82
2023/12/01 12:28:54;;;;;;;17.95;9.68;;;0.40;99.90;;;;;;5035944;28;20041;-82
2023/12/01 12:31:25;;;;;;;21.23;10.50;;;0.50;99.90;;;;;;5035894;28;20056;-82
2023/12/01 12:33:56;;;;;;;18.48;10.35;;;0.60;99.90;;;;;;5052545;28;20037;-82
2023/12/01 12:36:23;;;;;;;21.13;10.13;;;0.50;99.90;;;;;;5052655;28;20170;-81